sensor_id;sensor_type;location;lat;lon;timestamp;pressure;altitude;pressure_sealevel;temperature;humidity
61039;BME280;46919;45.816;3.104;2024-01-27T00:01:32;99454.06;;;8.47;100.00
61039;BME280;46919;45.816;3.104;2024-01-27T00:03:57;99450.72;;;8.45;100.00
61039;BME280;46919;45.816;3.104;2024-01-27T00:06:23;99445.31;;;8.45;100.00
61039;BME280;46919;45.816;3.104;2024-01-27T00:08:48;99454.53;;;8.43;100.00
61039;BME280;46919;45.816;3.104;2024-01-27T00:11:14;99453.03;;;8.40;100.00
61039;BME280;46919;45.816;3.104;2024-01-27T00:13:39;99445.97;;;8.39;100.00
61039;BME280;46919;45.816;3.104;2024-01-27T00:16:05;99443.13;;;8.41;100.00
61039;BME280;46919;45.816;3.104;2024-01-27T00:18:30;99443.44;;;8.38;100.00
61039;BME280;46919;45.816;3.104;2024-01-27T00:20:56;99445.28;;;8.37;100.00
61039;BME280;46919;45.816;3.104;2024-01-27T00:23:21;99451.72;;;8.36;100.00
61039;BME280;46919;45.816;3.104;2024-01-27T00:25:46;99445.47;;;8.35;100.00
61039;BME280;46919;45.816;3.104;2024-01-27T00:28:12;99450.84;;;8.35;100.00
61039;BME280;46919;45.816;3.104;2024-01-27T00:30:37;99443.78;;;8.34;100.00
61039;BME280;46919;45.816;3.104;2024-01-27T00:33:03;99438.41;;;8.34;100.00
61039;BME280;46919;45.816;3.104;2024-01-27T00:35:28;99448.66;;;8.31;100.00
61039;BME280;46919;45.816;3.104;2024-01-27T00:37:54;99442.97;;;8.26;100.00
61039;BME280;46919;45.816;3.104;2024-01-27T00:40:19;99442.97;;;8.18;100.00
61039;BME280;46919;45.816;3.104;2024-01-27T00:42:44;99440.31;;;8.09;100.00
61039;BME280;46919;45.816;3.104;2024-01-27T00:45:10;99433.91;;;8.02;100.00
61039;BME280;46919;45.816;3.104;2024-01-27T00:47:35;99450.06;;;8.02;100.00
61039;BME280;46919;45.816;3.104;2024-01-27T00:50:00;99444.34;;;7.97;100.00
61039;BME280;46919;45.816;3.104;2024-01-27T00:52:26;99447.38;;;7.94;100.00
61039;BME280;46919;45.816;3.104;2024-01-27T00:54:51;99453.75;;;7.93;100.00
61039;BME280;46919;45.816;3.104;2024-01-27T00:57:17;99450.75;;;7.88;100.00
61039;BME280;46919;45.816;3.104;2024-01-27T00:59:42;99447.06;;;7.89;100.00
61039;BME280;46919;45.816;3.104;2024-01-27T01:02:08;99449.09;;;7.87;100.00
61039;BME280;46919;45.816;3.104;2024-01-27T01:04:34;99449.91;;;7.87;100.00
61039;BME280;46919;45.816;3.104;2024-01-27T01:07:00;99460.03;;;7.85;100.00
61039;BME280;46919;45.816;3.104;2024-01-27T01:09:25;99454.81;;;7.84;100.00
61039;BME280;46919;45.816;3.104;2024-01-27T01:11:51;99462.19;;;7.82;100.00
61039;BME280;46919;45.816;3.104;2024-01-27T01:14:16;99456.97;;;7.80;100.00
61039;BME280;46919;45.816;3.104;2024-01-27T01:16:42;99448.41;;;7.76;100.00
61039;BME280;46919;45.816;3.104;2024-01-27T01:19:07;99452.78;;;7.77;100.00
61039;BME280;46919;45.816;3.104;2024-01-27T01:21:33;99450.09;;;7.77;100.00
61039;BME280;46919;45.816;3.104;2024-01-27T01:23:59;99449.94;;;7.79;100.00
61039;BME280;46919;45.816;3.104;2024-01-27T01:26:24;99450.25;;;7.76;100.00
61039;BME280;46919;45.816;3.104;2024-01-27T01:28:50;99457.47;;;7.75;100.00
61039;BME280;46919;45.816;3.104;2024-01-27T01:31:16;99456.47;;;7.76;100.00
61039;BME280;46919;45.816;3.104;2024-01-27T01:33:42;99455.47;;;7.77;100.00
61039;BME280;46919;45.816;3.104;2024-01-27T01:36:08;99454.78;;;7.75;100.00
61039;BME280;46919;45.816;3.104;2024-01-27T01:38:33;99451.25;;;7.75;100.00
61039;BME280;46919;45.816;3.104;2024-01-27T01:40:58;99459.16;;;7.76;100.00
61039;BME280;46919;45.816;3.104;2024-01-27T01:43:24;99456.81;;;7.73;100.00
61039;BME280;46919;45.816;3.104;2024-01-27T01:45:49;99461.34;;;7.73;100.00
61039;BME280;46919;45.816;3.104;2024-01-27T01:48:15;99451.44;;;7.73;100.00
61039;BME280;46919;45.816;3.104;2024-01-27T01:50:41;99455.13;;;7.72;100.00
61039;BME280;46919;45.816;3.104;2024-01-27T01:53:06;99454.13;;;7.65;100.00
61039;BME280;46919;45.816;3.104;2024-01-27T01:55:33;99451.44;;;7.65;100.00
61039;BME280;46919;45.816;3.104;2024-01-27T01:57:59;99445.88;;;7.67;100.00
61039;BME280;46919;45.816;3.104;2024-01-27T02:00:24;99442.19;;;7.68;100.00
61039;BME280;46919;45.816;3.104;2024-01-27T02:02:49;99445.53;;;7.70;100.00
61039;BME280;46919;45.816;3.104;2024-01-27T02:05:15;99444.88;;;7.68;100.00
61039;BME280;46919;45.816;3.104;2024-01-27T02:07:40;99446.88;;;7.66;100.00
61039;BME280;46919;45.816;3.104;2024-01-27T02:10:12;99454.13;;;7.65;100.00
61039;BME280;46919;45.816;3.104;2024-01-27T02:12:38;99445.06;;;7.66;100.00
61039;BME280;46919;45.816;3.104;2024-01-27T02:15:04;99445.88;;;7.67;100.00
61039;BME280;46919;45.816;3.104;2024-01-27T02:17:29;99448.56;;;7.67;100.00
61039;BME280;46919;45.816;3.104;2024-01-27T02:19:55;99444.19;;;7.66;100.00
61039;BME280;46919;45.816;3.104;2024-01-27T02:22:20;99449.41;;;7.67;100.00
61039;BME280;46919;45.816;3.104;2024-01-27T02:24:45;99453.28;;;7.65;100.00
61039;BME280;46919;45.816;3.104;2024-01-27T02:27:12;99442.84;;;7.61;100.00
61039;BME280;46919;45.816;3.104;2024-01-27T02:29:37;99440.16;;;7.61;100.00
61039;BME280;46919;45.816;3.104;2024-01-27T02:32:03;99452.44;;;7.64;100.00
61039;BME280;46919;45.816;3.104;2024-01-27T02:34:29;99446.72;;;7.59;100.00
61039;BME280;46919;45.816;3.104;2024-01-27T02:36:54;99443.69;;;7.54;100.00
61039;BME280;46919;45.816;3.104;2024-01-27T02:39:20;99442.66;;;7.55;100.00
61039;BME280;46919;45.816;3.104;2024-01-27T02:41:46;99435.94;;;7.51;100.00
61039;BME280;46919;45.816;3.104;2024-01-27T02:44:12;99436.94;;;7.50;100.00
61039;BME280;46919;45.816;3.104;2024-01-27T02:46:37;99434.59;;;7.47;100.00
61039;BME280;46919;45.816;3.104;2024-01-27T02:49:03;99433.25;;;7.42;100.00
61039;BME280;46919;45.816;3.104;2024-01-27T02:51:28;99438.81;;;7.41;100.00
61039;BME280;46919;45.816;3.104;2024-01-27T02:53:54;99436.44;;;7.38;100.00
61039;BME280;46919;45.816;3.104;2024-01-27T02:56:19;99436.78;;;7.35;100.00
61039;BME280;46919;45.816;3.104;2024-01-27T02:58:44;99427.19;;;7.32;100.00
61039;BME280;46919;45.816;3.104;2024-01-27T03:01:10;99433.91;;;7.28;100.00
61039;BME280;46919;45.816;3.104;2024-01-27T03:03:35;99426.00;;;7.27;100.00
61039;BME280;46919;45.816;3.104;2024-01-27T03:06:01;99425.31;;;7.24;100.00
61039;BME280;46919;45.816;3.104;2024-01-27T03:08:26;99429.84;;;7.24;100.00
61039;BME280;46919;45.816;3.104;2024-01-27T03:10:51;99425.81;;;7.20;100.00
61039;BME280;46919;45.816;3.104;2024-01-27T03:13:17;99426.50;;;7.14;100.00
61039;BME280;46919;45.816;3.104;2024-01-27T03:15:44;99432.22;;;7.19;100.00
61039;BME280;46919;45.816;3.104;2024-01-27T03:18:09;99427.00;;;7.17;100.00
61039;BME280;46919;45.816;3.104;2024-01-27T03:20:35;99426.31;;;7.15;100.00
61039;BME280;46919;45.816;3.104;2024-01-27T03:23:00;99428.66;;;7.10;100.00
61039;BME280;46919;45.816;3.104;2024-01-27T03:25:25;99434.50;;;7.05;100.00
61039;BME280;46919;45.816;3.104;2024-01-27T03:27:52;99433.53;;;7.06;100.00
61039;BME280;46919;45.816;3.104;2024-01-27T03:30:17;99436.22;;;7.06;100.00
61039;BME280;46919;45.816;3.104;2024-01-27T03:32:43;99431.81;;;7.05;100.00
61039;BME280;46919;45.816;3.104;2024-01-27T03:35:08;99426.78;;;7.02;100.00
61039;BME280;46919;45.816;3.104;2024-01-27T03:37:34;99416.72;;;7.04;100.00
61039;BME280;46919;45.816;3.104;2024-01-27T03:40:00;99420.25;;;7.05;100.00
61039;BME280;46919;45.816;3.104;2024-01-27T03:42:25;99413.50;;;7.01;100.00
61039;BME280;46919;45.816;3.104;2024-01-27T03:44:51;99416.03;;;7.02;100.00
61039;BME280;46919;45.816;3.104;2024-01-27T03:47:17;99418.03;;;7.00;100.00
61039;BME280;46919;45.816;3.104;2024-01-27T03:49:42;99409.31;;;6.98;100.00
61039;BME280;46919;45.816;3.104;2024-01-27T03:52:08;99424.25;;;7.01;100.00
61039;BME280;46919;45.816;3.104;2024-01-27T03:54:33;99414.69;;;6.98;100.00
61039;BME280;46919;45.816;3.104;2024-01-27T03:56:59;99413.00;;;6.97;100.00
61039;BME280;46919;45.816;3.104;2024-01-27T03:59:24;99415.69;;;6.97;100.00
61039;BME280;46919;45.816;3.104;2024-01-27T04:01:49;99414.69;;;6.98;100.00
61039;BME280;46919;45.816;3.104;2024-01-27T04:04:15;99422.91;;;6.97;100.00
61039;BME280;46919;45.816;3.104;2024-01-27T04:06:40;99413.00;;;6.97;100.00
61039;BME280;46919;45.816;3.104;2024-01-27T04:09:06;99418.38;;;6.97;100.00
61039;BME280;46919;45.816;3.104;2024-01-27T04:11:36;99418.69;;;6.94;100.00
61039;BME280;46919;45.816;3.104;2024-01-27T04:14:02;99423.25;;;6.94;100.00
61039;BME280;46919;45.816;3.104;2024-01-27T04:16:28;99422.25;;;6.95;100.00
61039;BME280;46919;45.816;3.104;2024-01-27T04:18:53;99419.56;;;6.95;100.00
61039;BME280;46919;45.816;3.104;2024-01-27T04:21:19;99412.31;;;6.95;100.00
61039;BME280;46919;45.816;3.104;2024-01-27T04:23:44;99412.31;;;6.95;100.00
61039;BME280;46919;45.816;3.104;2024-01-27T04:26:10;99408.81;;;6.95;100.00
61039;BME280;46919;45.816;3.104;2024-01-27T04:28:35;99406.63;;;6.98;100.00
61039;BME280;46919;45.816;3.104;2024-01-27T04:31:01;99402.25;;;6.97;100.00
61039;BME280;46919;45.816;3.104;2024-01-27T04:33:27;99401.25;;;6.98;100.00
61039;BME280;46919;45.816;3.104;2024-01-27T04:35:52;99399.22;;;7.00;100.00
61039;BME280;46919;45.816;3.104;2024-01-27T04:38:18;99400.91;;;7.01;100.00
61039;BME280;46919;45.816;3.104;2024-01-27T04:40:43;99393.69;;;7.02;100.00
61039;BME280;46919;45.816;3.104;2024-01-27T04:43:08;99388.31;;;7.02;100.00
61039;BME280;46919;45.816;3.104;2024-01-27T04:45:34;99388.81;;;7.05;100.00
61039;BME280;46919;45.816;3.104;2024-01-27T04:47:59;99384.13;;;7.07;100.00
61039;BME280;46919;45.816;3.104;2024-01-27T04:50:26;99381.28;;;7.09;100.00
61039;BME280;46919;45.816;3.104;2024-01-27T04:52:52;99384.63;;;7.11;100.00
61039;BME280;46919;45.816;3.104;2024-01-27T04:55:17;99390.50;;;7.15;100.00
61039;BME280;46919;45.816;3.104;2024-01-27T04:57:43;99387.50;;;7.18;100.00
61039;BME280;46919;45.816;3.104;2024-01-27T05:00:09;99385.47;;;7.20;100.00
61039;BME280;46919;45.816;3.104;2024-01-27T05:02:41;99379.25;;;7.19;100.00
61039;BME280;46919;45.816;3.104;2024-01-27T05:05:08;99377.56;;;7.18;100.00
61039;BME280;46919;45.816;3.104;2024-01-27T05:07:33;99380.44;;;7.17;100.00
61039;BME280;46919;45.816;3.104;2024-01-27T05:09:59;99386.16;;;7.14;100.00
61039;BME280;46919;45.816;3.104;2024-01-27T05:12:24;99380.78;;;7.14;100.00
61039;BME280;46919;45.816;3.104;2024-01-27T05:14:50;99379.09;;;7.13;100.00
61039;BME280;46919;45.816;3.104;2024-01-27T05:17:15;99382.78;;;7.12;100.00
61039;BME280;46919;45.816;3.104;2024-01-27T05:19:41;99385.13;;;7.06;100.00
61039;BME280;46919;45.816;3.104;2024-01-27T05:22:06;99391.66;;;7.04;100.00
61039;BME280;46919;45.816;3.104;2024-01-27T05:24:31;99388.16;;;7.03;100.00
61039;BME280;46919;45.816;3.104;2024-01-27T05:26:57;99391.00;;;7.02;100.00
61039;BME280;46919;45.816;3.104;2024-01-27T05:29:22;99389.16;;;7.02;100.00
61039;BME280;46919;45.816;3.104;2024-01-27T05:31:47;99396.22;;;7.03;100.00
61039;BME280;46919;45.816;3.104;2024-01-27T05:34:13;99397.91;;;7.04;100.00
61039;BME280;46919;45.816;3.104;2024-01-27T05:36:39;99388.31;;;7.02;100.00
61039;BME280;46919;45.816;3.104;2024-01-27T05:39:04;99395.53;;;7.01;100.00
61039;BME280;46919;45.816;3.104;2024-01-27T05:41:30;99391.50;;;6.97;100.00
61039;BME280;46919;45.816;3.104;2024-01-27T05:43:56;99397.69;;;6.98;100.00
61039;BME280;46919;45.816;3.104;2024-01-27T05:46:25;99395.38;;;6.95;100.00
61039;BME280;46919;45.816;3.104;2024-01-27T05:48:50;99394.16;;;6.89;100.00
61039;BME280;46919;45.816;3.104;2024-01-27T05:51:22;99398.53;;;6.90;100.00
61039;BME280;46919;45.816;3.104;2024-01-27T05:53:48;99394.00;;;6.91;100.00
61039;BME280;46919;45.816;3.104;2024-01-27T05:56:13;99401.91;;;6.92;100.00
61039;BME280;46919;45.816;3.104;2024-01-27T05:58:39;99406.44;;;6.92;100.00
61039;BME280;46919;45.816;3.104;2024-01-27T06:01:04;99398.88;;;6.87;100.00
61039;BME280;46919;45.816;3.104;2024-01-27T06:03:29;99401.03;;;6.83;100.00
61039;BME280;46919;45.816;3.104;2024-01-27T06:05:56;99401.50;;;6.79;100.00
61039;BME280;46919;45.816;3.104;2024-01-27T06:08:21;99405.06;;;6.79;100.00
61039;BME280;46919;45.816;3.104;2024-01-27T06:10:47;99411.59;;;6.77;100.00
61039;BME280;46919;45.816;3.104;2024-01-27T06:13:12;99417.44;;;6.72;100.00
61039;BME280;46919;45.816;3.104;2024-01-27T06:15:38;99417.94;;;6.67;100.00
61039;BME280;46919;45.816;3.104;2024-01-27T06:18:03;99418.63;;;6.69;100.00
61039;BME280;46919;45.816;3.104;2024-01-27T06:20:29;99416.28;;;6.66;100.00
61039;BME280;46919;45.816;3.104;2024-01-27T06:22:54;99414.75;;;6.64;100.00
61039;BME280;46919;45.816;3.104;2024-01-27T06:25:23;99428.00;;;6.65;100.00
61039;BME280;46919;45.816;3.104;2024-01-27T06:27:48;99426.78;;;6.60;100.00
61039;BME280;46919;45.816;3.104;2024-01-27T06:30:14;99429.31;;;6.61;100.00
61039;BME280;46919;45.816;3.104;2024-01-27T06:32:40;99431.19;;;6.61;100.00
61039;BME280;46919;45.816;3.104;2024-01-27T06:35:06;99436.72;;;6.59;100.00
61039;BME280;46919;45.816;3.104;2024-01-27T06:37:32;99437.91;;;6.57;100.00
61039;BME280;46919;45.816;3.104;2024-01-27T06:39:57;99437.91;;;6.57;100.00
61039;BME280;46919;45.816;3.104;2024-01-27T06:42:23;99444.94;;;6.58;100.00
61039;BME280;46919;45.816;3.104;2024-01-27T06:44:48;99448.47;;;6.58;100.00
61039;BME280;46919;45.816;3.104;2024-01-27T06:47:14;99451.69;;;6.62;100.00
61039;BME280;46919;45.816;3.104;2024-01-27T06:49:39;99447.44;;;6.59;100.00
61039;BME280;46919;45.816;3.104;2024-01-27T06:52:04;99455.50;;;6.59;100.00
61039;BME280;46919;45.816;3.104;2024-01-27T06:54:30;99461.56;;;6.61;100.00
61039;BME280;46919;45.816;3.104;2024-01-27T06:56:55;99455.50;;;6.59;100.00
61039;BME280;46919;45.816;3.104;2024-01-27T06:59:20;99444.78;;;6.59;100.00
61039;BME280;46919;45.816;3.104;2024-01-27T07:01:47;99446.47;;;6.60;100.00
61039;BME280;46919;45.816;3.104;2024-01-27T07:04:14;99449.81;;;6.62;100.00
61039;BME280;46919;45.816;3.104;2024-01-27T07:06:39;99452.50;;;6.62;100.00
61039;BME280;46919;45.816;3.104;2024-01-27T07:09:04;99452.19;;;6.65;100.00
61039;BME280;46919;45.816;3.104;2024-01-27T07:11:32;99446.50;;;6.68;100.00
61039;BME280;46919;45.816;3.104;2024-01-27T07:13:57;99447.66;;;6.66;100.00
61039;BME280;46919;45.816;3.104;2024-01-27T07:16:23;99444.44;;;6.62;100.00
61039;BME280;46919;45.816;3.104;2024-01-27T07:18:49;99446.09;;;6.55;100.00
61039;BME280;46919;45.816;3.104;2024-01-27T07:21:17;99452.78;;;6.51;100.00
61039;BME280;46919;45.816;3.104;2024-01-27T07:23:43;99452.13;;;6.49;100.00
61039;BME280;46919;45.816;3.104;2024-01-27T07:26:10;99455.81;;;6.48;100.00
61039;BME280;46919;45.816;3.104;2024-01-27T07:28:36;99460.50;;;6.46;100.00
61039;BME280;46919;45.816;3.104;2024-01-27T07:31:02;99460.50;;;6.46;100.00
61039;BME280;46919;45.816;3.104;2024-01-27T07:33:27;99457.97;;;6.44;100.00
61039;BME280;46919;45.816;3.104;2024-01-27T07:35:53;99462.88;;;6.49;100.00
61039;BME280;46919;45.816;3.104;2024-01-27T07:38:18;99461.00;;;6.49;100.00
61039;BME280;46919;45.816;3.104;2024-01-27T07:40:43;99457.50;;;6.49;100.00
61039;BME280;46919;45.816;3.104;2024-01-27T07:43:09;99460.34;;;6.47;100.00
61039;BME280;46919;45.816;3.104;2024-01-27T07:45:34;99456.13;;;6.45;100.00
61039;BME280;46919;45.816;3.104;2024-01-27T07:48:00;99454.25;;;6.45;100.00
61039;BME280;46919;45.816;3.104;2024-01-27T07:50:25;99456.44;;;6.42;100.00
61039;BME280;46919;45.816;3.104;2024-01-27T07:52:51;99464.50;;;6.42;100.00
61039;BME280;46919;45.816;3.104;2024-01-27T07:55:16;99464.66;;;6.40;100.00
61039;BME280;46919;45.816;3.104;2024-01-27T07:57:42;99474.75;;;6.46;100.00
61039;BME280;46919;45.816;3.104;2024-01-27T08:00:08;99469.91;;;6.50;100.00
61039;BME280;46919;45.816;3.104;2024-01-27T08:02:34;99475.81;;;6.53;100.00
61039;BME280;46919;45.816;3.104;2024-01-27T08:04:59;99478.03;;;6.58;100.00
61039;BME280;46919;45.816;3.104;2024-01-27T08:07:24;99491.78;;;6.55;100.00
61039;BME280;46919;45.816;3.104;2024-01-27T08:09:50;99481.72;;;6.57;100.00
61039;BME280;46919;45.816;3.104;2024-01-27T08:12:15;99474.31;;;6.59;100.00
61039;BME280;46919;45.816;3.104;2024-01-27T08:14:41;99464.31;;;6.69;100.00
61039;BME280;46919;45.816;3.104;2024-01-27T08:17:06;99454.59;;;6.77;100.00
61039;BME280;46919;45.816;3.104;2024-01-27T08:19:32;99463.22;;;6.88;100.00
61039;BME280;46919;45.816;3.104;2024-01-27T08:21:57;99458.03;;;6.95;100.00
61039;BME280;46919;45.816;3.104;2024-01-27T08:24:23;99462.03;;;6.99;100.00
61039;BME280;46919;45.816;3.104;2024-01-27T08:26:49;99465.78;;;7.06;100.00
61039;BME280;46919;45.816;3.104;2024-01-27T08:29:15;99470.16;;;7.07;100.00
61039;BME280;46919;45.816;3.104;2024-01-27T08:31:41;99475.06;;;7.12;100.00
61039;BME280;46919;45.816;3.104;2024-01-27T08:34:06;99474.19;;;7.12;100.00
61039;BME280;46919;45.816;3.104;2024-01-27T08:36:32;99476.88;;;7.12;100.00
61039;BME280;46919;45.816;3.104;2024-01-27T08:38:59;99475.22;;;7.11;100.00
61039;BME280;46919;45.816;3.104;2024-01-27T08:41:24;99474.22;;;7.20;100.00
61039;BME280;46919;45.816;3.104;2024-01-27T08:43:50;99470.22;;;7.32;100.00
61039;BME280;46919;45.816;3.104;2024-01-27T08:46:16;99467.19;;;7.35;100.00
61039;BME280;46919;45.816;3.104;2024-01-27T08:48:43;99479.63;;;7.28;100.00
61039;BME280;46919;45.816;3.104;2024-01-27T08:51:09;99477.59;;;7.30;100.00
61039;BME280;46919;45.816;3.104;2024-01-27T08:53:35;99474.75;;;7.32;100.00
61039;BME280;46919;45.816;3.104;2024-01-27T08:56:01;99471.25;;;7.39;100.00
61039;BME280;46919;45.816;3.104;2024-01-27T08:58:26;99470.91;;;7.42;100.00
61039;BME280;46919;45.816;3.104;2024-01-27T09:00:52;99472.59;;;7.43;100.00
61039;BME280;46919;45.816;3.104;2024-01-27T09:03:18;99467.19;;;7.43;100.00
61039;BME280;46919;45.816;3.104;2024-01-27T09:05:46;99466.53;;;7.50;100.00
61039;BME280;46919;45.816;3.104;2024-01-27T09:08:11;99466.91;;;7.63;100.00
61039;BME280;46919;45.816;3.104;2024-01-27T09:10:37;99463.88;;;7.66;100.00
61039;BME280;46919;45.816;3.104;2024-01-27T09:13:02;99457.13;;;7.70;100.00
61039;BME280;46919;45.816;3.104;2024-01-27T09:15:28;99461.19;;;7.74;100.00
61039;BME280;46919;45.816;3.104;2024-01-27T09:17:53;99464.56;;;7.68;100.00
61039;BME280;46919;45.816;3.104;2024-01-27T09:20:19;99463.34;;;7.62;100.00
61039;BME280;46919;45.816;3.104;2024-01-27T09:22:44;99464.22;;;7.71;100.00
61039;BME280;46919;45.816;3.104;2024-01-27T09:25:13;99463.38;;;7.87;100.00
61039;BME280;46919;45.816;3.104;2024-01-27T09:27:39;99464.22;;;7.88;100.00
61039;BME280;46919;45.816;3.104;2024-01-27T09:30:05;99460.84;;;7.86;100.00
61039;BME280;46919;45.816;3.104;2024-01-27T09:32:30;99459.00;;;7.78;100.00
61039;BME280;46919;45.816;3.104;2024-01-27T09:34:56;99458.66;;;7.65;100.00
61039;BME280;46919;45.816;3.104;2024-01-27T09:37:21;99458.50;;;7.74;100.00
61039;BME280;46919;45.816;3.104;2024-01-27T09:39:47;99457.13;;;7.78;100.00
61039;BME280;46919;45.816;3.104;2024-01-27T09:42:13;99462.53;;;7.78;100.00
61039;BME280;46919;45.816;3.104;2024-01-27T09:44:48;99452.78;;;7.86;100.00
61039;BME280;46919;45.816;3.104;2024-01-27T09:47:15;99449.91;;;7.87;100.00
61039;BME280;46919;45.816;3.104;2024-01-27T09:49:41;99448.41;;;7.85;100.00
61039;BME280;46919;45.816;3.104;2024-01-27T09:52:07;99447.72;;;7.83;100.00
61039;BME280;46919;45.816;3.104;2024-01-27T09:54:34;99459.50;;;7.82;100.00
61039;BME280;46919;45.816;3.104;2024-01-27T09:57:00;99457.13;;;7.70;100.00
61039;BME280;46919;45.816;3.104;2024-01-27T09:59:26;99451.59;;;7.80;100.00
61039;BME280;46919;45.816;3.104;2024-01-27T10:01:52;99452.78;;;7.86;100.00
61039;BME280;46919;45.816;3.104;2024-01-27T10:04:19;99452.28;;;7.90;100.00
61039;BME280;46919;45.816;3.104;2024-01-27T10:06:46;99449.75;;;7.89;100.00
61039;BME280;46919;45.816;3.104;2024-01-27T10:09:13;99451.78;;;7.95;100.00
61039;BME280;46919;45.816;3.104;2024-01-27T10:11:43;99447.53;;;8.01;100.00
61039;BME280;46919;45.816;3.104;2024-01-27T10:14:10;99449.91;;;7.95;100.00
61039;BME280;46919;45.816;3.104;2024-01-27T10:16:43;99440.81;;;7.96;100.00
61039;BME280;46919;45.816;3.104;2024-01-27T10:19:17;99435.59;;;8.11;100.00
61039;BME280;46919;45.816;3.104;2024-01-27T10:21:43;99440.94;;;8.36;100.00
61039;BME280;46919;45.816;3.104;2024-01-27T10:24:09;99427.91;;;8.56;100.00
61039;BME280;46919;45.816;3.104;2024-01-27T10:26:34;99427.88;;;8.73;100.00
61039;BME280;46919;45.816;3.104;2024-01-27T10:29:00;99431.22;;;8.75;100.00
61039;BME280;46919;45.816;3.104;2024-01-27T10:31:32;99431.06;;;8.76;100.00
61039;BME280;46919;45.816;3.104;2024-01-27T10:33:58;99424.31;;;8.80;100.00
61039;BME280;46919;45.816;3.104;2024-01-27T10:36:24;99422.59;;;8.79;100.00
61039;BME280;46919;45.816;3.104;2024-01-27T10:38:51;99423.28;;;8.81;100.00
61039;BME280;46919;45.816;3.104;2024-01-27T10:41:22;99423.56;;;8.86;100.00
61039;BME280;46919;45.816;3.104;2024-01-27T10:43:50;99419.22;;;8.85;100.00
61039;BME280;46919;45.816;3.104;2024-01-27T10:46:19;99414.66;;;8.86;100.00
61039;BME280;46919;45.816;3.104;2024-01-27T10:48:50;99410.81;;;8.80;100.00
61039;BME280;46919;45.816;3.104;2024-01-27T10:51:22;99398.34;;;8.79;100.00
61039;BME280;46919;45.816;3.104;2024-01-27T10:53:49;99398.44;;;8.94;100.00
61039;BME280;46919;45.816;3.104;2024-01-27T10:56:15;99397.94;;;9.22;100.00
61039;BME280;46919;45.816;3.104;2024-01-27T10:58:40;99395.03;;;9.47;100.00
61039;BME280;46919;45.816;3.104;2024-01-27T11:01:11;99382.53;;;9.69;100.00
61039;BME280;46919;45.816;3.104;2024-01-27T11:03:40;99382.28;;;9.78;100.00
61039;BME280;46919;45.816;3.104;2024-01-27T11:06:07;99379.53;;;9.87;100.00
61039;BME280;46919;45.816;3.104;2024-01-27T11:08:36;99378.31;;;9.89;100.00
61039;BME280;46919;45.816;3.104;2024-01-27T11:11:03;99374.69;;;9.97;100.00
61039;BME280;46919;45.816;3.104;2024-01-27T11:13:29;99371.63;;;10.00;100.00
61039;BME280;46919;45.816;3.104;2024-01-27T11:15:56;99373.59;;;9.91;100.00
61039;BME280;46919;45.816;3.104;2024-01-27T11:18:24;99365.47;;;9.91;100.00
61039;BME280;46919;45.816;3.104;2024-01-27T11:20:55;99367.81;;;9.94;100.00
61039;BME280;46919;45.816;3.104;2024-01-27T11:23:31;99347.53;;;10.13;100.00
61039;BME280;46919;45.816;3.104;2024-01-27T11:26:07;99357.75;;;10.18;100.00
61039;BME280;46919;45.816;3.104;2024-01-27T11:28:33;99352.00;;;10.36;100.00
61039;BME280;46919;45.816;3.104;2024-01-27T11:31:03;99345.25;;;10.32;100.00
61039;BME280;46919;45.816;3.104;2024-01-27T11:33:29;99342.28;;;10.27;100.00
61039;BME280;46919;45.816;3.104;2024-01-27T11:36:04;99343.03;;;10.36;100.00
61039;BME280;46919;45.816;3.104;2024-01-27T11:38:31;99341.66;;;10.40;100.00
61039;BME280;46919;45.816;3.104;2024-01-27T11:40:57;99334.44;;;10.32;100.00
61039;BME280;46919;45.816;3.104;2024-01-27T11:43:22;99326.34;;;10.32;100.00
61039;BME280;46919;45.816;3.104;2024-01-27T11:46:01;99321.88;;;10.24;100.00
61039;BME280;46919;45.816;3.104;2024-01-27T11:48:27;99322.63;;;10.18;100.00
61039;BME280;46919;45.816;3.104;2024-01-27T11:51:06;99324.69;;;10.16;100.00
61039;BME280;46919;45.816;3.104;2024-01-27T11:53:31;99316.94;;;10.13;100.00
61039;BME280;46919;45.816;3.104;2024-01-27T11:55:57;99322.56;;;10.41;100.00
61039;BME280;46919;45.816;3.104;2024-01-27T11:58:24;99317.28;;;10.69;100.00
61039;BME280;46919;45.816;3.104;2024-01-27T12:00:49;99319.38;;;10.89;100.00
61039;BME280;46919;45.816;3.104;2024-01-27T12:03:15;99320.13;;;10.83;100.00
61039;BME280;46919;45.816;3.104;2024-01-27T12:05:40;99305.84;;;10.89;100.00
61039;BME280;46919;45.816;3.104;2024-01-27T12:08:08;99307.78;;;10.95;100.00
61039;BME280;46919;45.816;3.104;2024-01-27T12:10:33;99310.63;;;11.09;100.00
61039;BME280;46919;45.816;3.104;2024-01-27T12:13:00;99298.09;;;11.29;100.00
61039;BME280;46919;45.816;3.104;2024-01-27T12:15:25;99296.31;;;11.15;100.00
61039;BME280;46919;45.816;3.104;2024-01-27T12:17:52;99291.28;;;11.12;100.00
61039;BME280;46919;45.816;3.104;2024-01-27T12:20:17;99283.44;;;11.73;100.00
61039;BME280;46919;45.816;3.104;2024-01-27T12:22:42;99285.44;;;12.21;100.00
61039;BME280;46919;45.816;3.104;2024-01-27T12:25:09;99267.53;;;12.27;100.00
61039;BME280;46919;45.816;3.104;2024-01-27T12:27:35;99264.16;;;12.18;100.00
61039;BME280;46919;45.816;3.104;2024-01-27T12:30:01;99265.59;;;12.14;100.00
61039;BME280;46919;45.816;3.104;2024-01-27T12:32:27;99260.00;;;12.29;100.00
61039;BME280;46919;45.816;3.104;2024-01-27T12:34:53;99258.19;;;12.36;100.00
61039;BME280;46919;45.816;3.104;2024-01-27T12:37:21;99256.28;;;12.30;100.00
61039;BME280;46919;45.816;3.104;2024-01-27T12:39:47;99246.78;;;12.61;100.00
61039;BME280;46919;45.816;3.104;2024-01-27T12:42:16;99244.94;;;12.75;100.00
61039;BME280;46919;45.816;3.104;2024-01-27T12:44:42;99245.53;;;12.70;100.00
61039;BME280;46919;45.816;3.104;2024-01-27T12:47:07;99225.91;;;12.55;100.00
61039;BME280;46919;45.816;3.104;2024-01-27T12:49:35;99228.38;;;12.49;100.00
61039;BME280;46919;45.816;3.104;2024-01-27T12:52:00;99218.16;;;12.45;100.00
61039;BME280;46919;45.816;3.104;2024-01-27T12:54:26;99218.88;;;12.87;100.00